KXNA/XNA METAR and TAF weather

Enter ICAO airport designator
Station Type Date Time Source
KXNA METAR 2019/12/08 03:53 UTC NOAA

KXNA 080353Z 16006KT 10SM CLR 03/00 A3012 RMK AO2 SLP205 T00280000


Station Type Date Time Source
KXNA Decoded METAR 2019/12/08 03:53 UTC NOAA

NORTHWEST ARKANSAS REGIONAL, AR, United States (KXNA) 36-17N 94-18W
Dec 07, 2019 - 10:53 PM EST / 2019.12.08 0353 UTC
Wind: from the SSE (160 degrees) at 7 MPH (6 KT):0
Visibility: 10 mile(s):0
Sky conditions: clear
Temperature: 37.0 F (2.8 C)
Dew Point: 32.0 F (0.0 C)
Relative Humidity: 81%
Pressure (altimeter): 30.12 in. Hg (1019 hPa)
ob: KXNA 080353Z 16006KT 10SM CLR 03/00 A3012 RMK AO2 SLP205 T00280000
cycle: 4

Station Type Date Time Source
KXNA TAF 2019/12/07 18:22 UTC NOAA

TAF KXNA 071720Z 0718/0818 17007KT P6SM BKN250
FM081300 18014KT P6SM BKN015

Example: see airport list